Princesa Das Ondas — CUGX8 — position and weather

sailwx.info

Track history (hours):
 
Tides and Currents Weather Stations Pressure Air Temp Water Temp Dewpoint Dewpoint Depression Visibility Wind Speed Wind Dir Waves Ship Positions

Princesa Das Ondas

Last reported at 2017-Nov-03 14:43 UTC. Time now 2017-Nov-23 22:23 UTC.
Position N 39°21' W 009°22'.
Warning: this ship's position is 20 days out of date.

Length 18 m.

Type: Fishing. MMSI: 263410460.

Date/timePositionNaut miles runAvg speedWind from/ knotsBaromVisibWave heightAir tempDewpointWater temp
2017-Nov-03 14:43N 39°21' W 009°22'0 0.0
2017-Nov-03 14:30N 39°21' W 009°22'2 0.1
2017-Nov-02 15:14N 39°22' W 009°25'2 7.6
2017-Nov-02 14:59N 39°21' W 009°23'  
2017-Oct-30 20:01N 39°21' W 009°22'0 0.0
2017-Oct-30 19:59N 39°21' W 009°22'2 5.1
2017-Oct-30 19:30N 39°22' W 009°25'4 8.6
2017-Oct-30 19:00N 39°26' W 009°27'4 7.0
2017-Oct-30 18:30N 39°27' W 009°32'1 1.4
2017-Oct-30 17:59N 39°26' W 009°33'0 0.4
2017-Oct-30 17:30N 39°27' W 009°33'1 1.4
2017-Oct-30 16:27N 39°25' W 009°33'3 7.4
2017-Oct-30 16:00N 39°23' W 009°30'4 8.3
2017-Oct-30 15:30N 39°21' W 009°25'2 4.0
2017-Oct-30 14:59N 39°21' W 009°22'0 0.0
2017-Oct-30 14:30N 39°21' W 009°22'  
2017-Oct-27 19:45N 39°21' W 009°22'0 0.0
2017-Oct-27 19:30N 39°21' W 009°22'3 6.0
2017-Oct-27 18:56N 39°23' W 009°26'3 7.2
2017-Oct-27 18:30N 39°25' W 009°28'4 7.8
2017-Oct-27 18:00N 39°27' W 009°33'0 0.4
2017-Oct-27 17:30N 39°27' W 009°33'0 0.3
2017-Oct-27 17:00N 39°26' W 009°33'1 3.0
2017-Oct-27 16:30N 39°26' W 009°31'4 7.4
2017-Oct-27 16:00N 39°24' W 009°27'4 8.5
2017-Oct-27 15:30N 39°21' W 009°23'1 1.8
2017-Oct-27 15:00N 39°21' W 009°22'0 0.0
2017-Oct-27 14:30N 39°21' W 009°22'0 0.0
2017-Oct-27 14:00N 39°21' W 009°22'0 0.0
2017-Oct-26 21:04N 39°21' W 009°22'0 0.0
2017-Oct-26 20:58N 39°21' W 009°22'0 0.0
2017-Oct-26 20:29N 39°21' W 009°22'1 1.5
2017-Oct-26 20:00N 39°21' W 009°23'9 4.0
2017-Oct-26 17:40N 39°26' W 009°33'0 1.3
2017-Oct-26 17:26N 39°26' W 009°32'0 0.1
2017-Oct-26 16:44N 39°26' W 009°32'1 5.5
2017-Oct-26 16:30N 39°25' W 009°33'4 6.9
2017-Oct-26 15:52N 39°22' W 009°28'3 9.0
2017-Oct-26 15:30N 39°21' W 009°24'2 0.0
2017-Oct-24 17:52N 39°21' W 009°22'0 0.0
2017-Oct-24 17:30N 39°21' W 009°22'0 0.0
2017-Oct-24 17:00N 39°21' W 009°22'0 0.0
2017-Oct-24 16:30N 39°21' W 009°22'1 2.5
2017-Oct-24 16:00N 39°20' W 009°22'5 9.2
2017-Oct-24 15:30N 39°15' W 009°23'5 9.4
2017-Oct-24 15:00N 39°11' W 009°23'  
Track history (hours):
 
Tides and Currents Weather Stations Pressure Air Temp Water Temp Dewpoint Dewpoint Depression Visibility Wind Speed Wind Dir Waves Ship Positions

Princesa Das Ondas

Last reported at 2017-Nov-03 14:43 UTC. Time now 2017-Nov-23 22:23 UTC.
Position N 39°21' W 009°22'.
Warning: this ship's position is 20 days out of date.

Length 18 m.

Type: Fishing. MMSI: 263410460.

Date/timePositionNaut miles runAvg speedWind from/ knotsBaromVisibWave heightAir tempDewpointWater temp
2017-Nov-03 14:43N 39°21' W 009°22'0 0.0
2017-Nov-03 14:30N 39°21' W 009°22'2 0.1
2017-Nov-02 15:14N 39°22' W 009°25'2 7.6
2017-Nov-02 14:59N 39°21' W 009°23'  
2017-Oct-30 20:01N 39°21' W 009°22'0 0.0
2017-Oct-30 19:59N 39°21' W 009°22'2 5.1
2017-Oct-30 19:30N 39°22' W 009°25'4 8.6
2017-Oct-30 19:00N 39°26' W 009°27'4 7.0
2017-Oct-30 18:30N 39°27' W 009°32'1 1.4
2017-Oct-30 17:59N 39°26' W 009°33'0 0.4
2017-Oct-30 17:30N 39°27' W 009°33'1 1.4
2017-Oct-30 16:27N 39°25' W 009°33'3 7.4
2017-Oct-30 16:00N 39°23' W 009°30'4 8.3
2017-Oct-30 15:30N 39°21' W 009°25'2 4.0
2017-Oct-30 14:59N 39°21' W 009°22'0 0.0
2017-Oct-30 14:30N 39°21' W 009°22'  
2017-Oct-27 19:45N 39°21' W 009°22'0 0.0
2017-Oct-27 19:30N 39°21' W 009°22'3 6.0
2017-Oct-27 18:56N 39°23' W 009°26'3 7.2
2017-Oct-27 18:30N 39°25' W 009°28'4 7.8
2017-Oct-27 18:00N 39°27' W 009°33'0 0.4
2017-Oct-27 17:30N 39°27' W 009°33'0 0.3
2017-Oct-27 17:00N 39°26' W 009°33'1 3.0
2017-Oct-27 16:30N 39°26' W 009°31'4 7.4
2017-Oct-27 16:00N 39°24' W 009°27'4 8.5
2017-Oct-27 15:30N 39°21' W 009°23'1 1.8
2017-Oct-27 15:00N 39°21' W 009°22'0 0.0
2017-Oct-27 14:30N 39°21' W 009°22'0 0.0
2017-Oct-27 14:00N 39°21' W 009°22'0 0.0
2017-Oct-26 21:04N 39°21' W 009°22'0 0.0
2017-Oct-26 20:58N 39°21' W 009°22'0 0.0
2017-Oct-26 20:29N 39°21' W 009°22'1 1.5
2017-Oct-26 20:00N 39°21' W 009°23'9 4.0
2017-Oct-26 17:40N 39°26' W 009°33'0 1.3
2017-Oct-26 17:26N 39°26' W 009°32'0 0.1
2017-Oct-26 16:44N 39°26' W 009°32'1 5.5
2017-Oct-26 16:30N 39°25' W 009°33'4 6.9
2017-Oct-26 15:52N 39°22' W 009°28'3 9.0
2017-Oct-26 15:30N 39°21' W 009°24'2 0.0
2017-Oct-24 17:52N 39°21' W 009°22'0 0.0
2017-Oct-24 17:30N 39°21' W 009°22'0 0.0
2017-Oct-24 17:00N 39°21' W 009°22'0 0.0
2017-Oct-24 16:30N 39°21' W 009°22'1 2.5
2017-Oct-24 16:00N 39°20' W 009°22'5 9.2
2017-Oct-24 15:30N 39°15' W 009°23'5 9.4
2017-Oct-24 15:00N 39°11' W 009°23'  

Dump ship's entire track history